sensor_id;sensor_type;location;lat;lon;timestamp;pressure;altitude;pressure_sealevel;temperature;humidity
40918;BME280;26644;50.248;19.032;2023-05-01T00:01:16;98629.56;;;5.93;61.32
40918;BME280;26644;50.248;19.032;2023-05-01T00:04:24;98630.47;;;5.82;61.59
40918;BME280;26644;50.248;19.032;2023-05-01T00:07:29;98631.78;;;5.79;61.49
40918;BME280;26644;50.248;19.032;2023-05-01T00:10:34;98630.63;;;5.75;60.81
40918;BME280;26644;50.248;19.032;2023-05-01T00:13:39;98626.03;;;5.64;61.25
40918;BME280;26644;50.248;19.032;2023-05-01T00:16:44;98618.38;;;5.49;61.52
40918;BME280;26644;50.248;19.032;2023-05-01T00:19:53;98625.53;;;5.38;61.82
40918;BME280;26644;50.248;19.032;2023-05-01T00:22:58;98612.75;;;5.26;62.00
40918;BME280;26644;50.248;19.032;2023-05-01T00:26:03;98614.19;;;5.17;62.00
40918;BME280;26644;50.248;19.032;2023-05-01T00:29:08;98626.97;;;5.17;62.34
40918;BME280;26644;50.248;19.032;2023-05-01T00:32:13;98607.34;;;5.03;62.46
40918;BME280;26644;50.248;19.032;2023-05-01T00:35:21;98612.22;;;5.01;62.70
40918;BME280;26644;50.248;19.032;2023-05-01T00:38:25;98619.16;;;5.08;62.70
40918;BME280;26644;50.248;19.032;2023-05-01T00:41:31;98615.28;;;5.04;62.81
40918;BME280;26644;50.248;19.032;2023-05-01T00:44:36;98619.53;;;5.12;62.79
40918;BME280;26644;50.248;19.032;2023-05-01T00:47:41;98619.78;;;5.10;62.83
40918;BME280;26644;50.248;19.032;2023-05-01T00:50:49;98621.44;;;5.11;62.91
40918;BME280;26644;50.248;19.032;2023-05-01T00:53:54;98623.78;;;5.08;62.69
40918;BME280;26644;50.248;19.032;2023-05-01T00:57:00;98611.63;;;4.99;62.53
40918;BME280;26644;50.248;19.032;2023-05-01T01:00:07;98608.53;;;4.95;62.78
40918;BME280;26644;50.248;19.032;2023-05-01T01:03:12;98616.00;;;5.00;63.23
40918;BME280;26644;50.248;19.032;2023-05-01T01:06:30;98623.69;;;5.03;63.58
40918;BME280;26644;50.248;19.032;2023-05-01T01:09:54;98613.03;;;4.89;63.67
40918;BME280;26644;50.248;19.032;2023-05-01T01:13:12;98616.59;;;4.90;64.19
40918;BME280;26644;50.248;19.032;2023-05-01T01:16:30;98621.34;;;4.83;64.47
40918;BME280;26644;50.248;19.032;2023-05-01T01:20:12;98623.94;;;4.77;64.31
40918;BME280;26644;50.248;19.032;2023-05-01T01:27:38;98616.94;;;4.70;65.24
40918;BME280;26644;50.248;19.032;2023-05-01T01:31:13;98607.03;;;4.64;65.18
40918;BME280;26644;50.248;19.032;2023-05-01T01:34:32;98598.97;;;4.57;65.48
40918;BME280;26644;50.248;19.032;2023-05-01T01:37:44;98606.28;;;4.56;65.12
40918;BME280;26644;50.248;19.032;2023-05-01T01:40:57;98608.88;;;4.51;65.44
40918;BME280;26644;50.248;19.032;2023-05-01T01:44:16;98595.38;;;4.44;65.69
40918;BME280;26644;50.248;19.032;2023-05-01T01:47:29;98603.53;;;4.33;66.20
40918;BME280;26644;50.248;19.032;2023-05-01T01:50:41;98603.31;;;4.22;66.13
40918;BME280;26644;50.248;19.032;2023-05-01T01:53:52;98593.84;;;4.13;66.20
40918;BME280;26644;50.248;19.032;2023-05-01T01:57:02;98585.22;;;4.16;66.46
40918;BME280;26644;50.248;19.032;2023-05-01T02:00:12;98592.75;;;4.14;66.30
40918;BME280;26644;50.248;19.032;2023-05-01T02:03:23;98583.75;;;4.02;66.78
40918;BME280;26644;50.248;19.032;2023-05-01T02:06:34;98570.97;;;3.90;67.12
40918;BME280;26644;50.248;19.032;2023-05-01T02:09:43;98565.31;;;3.92;67.25
40918;BME280;26644;50.248;19.032;2023-05-01T02:12:52;98576.66;;;4.01;67.29
40918;BME280;26644;50.248;19.032;2023-05-01T02:16:01;98572.28;;;4.00;67.52
40918;BME280;26644;50.248;19.032;2023-05-01T02:19:08;98571.34;;;3.94;67.91
40918;BME280;26644;50.248;19.032;2023-05-01T02:22:20;98568.25;;;3.90;67.93
40918;BME280;26644;50.248;19.032;2023-05-01T02:25:30;98558.34;;;3.84;68.26
40918;BME280;26644;50.248;19.032;2023-05-01T02:28:41;98551.00;;;3.85;68.28
40918;BME280;26644;50.248;19.032;2023-05-01T02:31:46;98559.03;;;3.91;68.24
40918;BME280;26644;50.248;19.032;2023-05-01T02:34:51;98561.06;;;3.96;68.41
40918;BME280;26644;50.248;19.032;2023-05-01T02:37:59;98558.50;;;4.01;68.17
40918;BME280;26644;50.248;19.032;2023-05-01T02:41:05;98557.88;;;3.99;68.28
40918;BME280;26644;50.248;19.032;2023-05-01T02:44:14;98555.78;;;4.01;68.06
40918;BME280;26644;50.248;19.032;2023-05-01T02:47:23;98548.69;;;4.00;67.96
40918;BME280;26644;50.248;19.032;2023-05-01T02:50:33;98552.81;;;4.03;67.56
40918;BME280;26644;50.248;19.032;2023-05-01T02:53:45;98545.97;;;4.00;67.55
40918;BME280;26644;50.248;19.032;2023-05-01T02:56:55;98547.84;;;4.00;66.83
40918;BME280;26644;50.248;19.032;2023-05-01T03:00:00;98548.06;;;3.98;67.55
40918;BME280;26644;50.248;19.032;2023-05-01T03:03:05;98544.78;;;3.96;66.85
40918;BME280;26644;50.248;19.032;2023-05-01T03:06:10;98547.16;;;4.04;66.27
40918;BME280;26644;50.248;19.032;2023-05-01T03:09:17;98556.47;;;4.08;66.41
40918;BME280;26644;50.248;19.032;2023-05-01T03:12:23;98552.47;;;4.11;66.47
40918;BME280;26644;50.248;19.032;2023-05-01T03:15:27;98550.56;;;4.11;66.66
40918;BME280;26644;50.248;19.032;2023-05-01T03:18:32;98555.28;;;4.04;67.29
40918;BME280;26644;50.248;19.032;2023-05-01T03:21:37;98542.75;;;3.91;67.69
40918;BME280;26644;50.248;19.032;2023-05-01T03:24:45;98548.03;;;3.86;67.99
40918;BME280;26644;50.248;19.032;2023-05-01T03:27:50;98551.47;;;3.82;68.26
40918;BME280;26644;50.248;19.032;2023-05-01T03:30:56;98551.59;;;3.87;68.36
40918;BME280;26644;50.248;19.032;2023-05-01T03:34:00;98555.25;;;3.81;68.16
40918;BME280;26644;50.248;19.032;2023-05-01T03:37:06;98543.97;;;3.65;68.60
40918;BME280;26644;50.248;19.032;2023-05-01T03:40:13;98547.81;;;3.76;68.87
40918;BME280;26644;50.248;19.032;2023-05-01T03:43:58;98553.13;;;3.83;68.51
40918;BME280;26644;50.248;19.032;2023-05-01T03:47:14;98540.84;;;3.80;68.24
40918;BME280;26644;50.248;19.032;2023-05-01T03:50:20;98552.69;;;3.98;68.31
40918;BME280;26644;50.248;19.032;2023-05-01T03:53:25;98543.50;;;4.22;67.92
40918;BME280;26644;50.248;19.032;2023-05-01T03:56:34;98545.41;;;4.57;67.51
40918;BME280;26644;50.248;19.032;2023-05-01T03:59:40;98541.78;;;5.04;66.14
40918;BME280;26644;50.248;19.032;2023-05-01T04:02:48;98548.34;;;5.61;63.63
40918;BME280;26644;50.248;19.032;2023-05-01T04:05:57;98541.22;;;6.23;60.99
40918;BME280;26644;50.248;19.032;2023-05-01T04:09:03;98509.03;;;6.59;58.55
40918;BME280;26644;50.248;19.032;2023-05-01T04:12:10;98541.91;;;7.31;57.17
40918;BME280;26644;50.248;19.032;2023-05-01T04:15:16;98542.72;;;7.81;56.35
40918;BME280;26644;50.248;19.032;2023-05-01T04:18:22;98534.59;;;8.23;54.49
40918;BME280;26644;50.248;19.032;2023-05-01T04:21:30;98536.84;;;8.74;53.08
40918;BME280;26644;50.248;19.032;2023-05-01T04:24:35;98532.72;;;9.25;51.08
40918;BME280;26644;50.248;19.032;2023-05-01T04:27:43;98535.91;;;9.75;50.28
40918;BME280;26644;50.248;19.032;2023-05-01T04:30:49;98533.19;;;10.16;48.27
40918;BME280;26644;50.248;19.032;2023-05-01T04:33:54;98536.78;;;10.63;46.96
40918;BME280;26644;50.248;19.032;2023-05-01T04:36:59;98547.97;;;10.92;46.19
40918;BME280;26644;50.248;19.032;2023-05-01T04:40:06;98545.38;;;11.22;44.45
40918;BME280;26644;50.248;19.032;2023-05-01T04:43:14;98547.00;;;11.33;43.75
40918;BME280;26644;50.248;19.032;2023-05-01T04:46:20;98536.91;;;11.08;43.77
40918;BME280;26644;50.248;19.032;2023-05-01T04:49:24;98547.97;;;10.87;44.13
40918;BME280;26644;50.248;19.032;2023-05-01T04:52:30;98538.94;;;10.51;44.82
40918;BME280;26644;50.248;19.032;2023-05-01T04:55:37;98531.56;;;10.05;45.60
40918;BME280;26644;50.248;19.032;2023-05-01T04:58:51;98543.28;;;9.69;46.47
40918;BME280;26644;50.248;19.032;2023-05-01T05:01:59;98536.88;;;9.33;47.27
40918;BME280;26644;50.248;19.032;2023-05-01T05:05:05;98541.97;;;9.03;48.27
40918;BME280;26644;50.248;19.032;2023-05-01T05:08:11;98531.38;;;8.69;48.55
40918;BME280;26644;50.248;19.032;2023-05-01T05:11:21;98550.41;;;8.54;49.79
40918;BME280;26644;50.248;19.032;2023-05-01T05:14:29;98536.25;;;8.24;50.53
40918;BME280;26644;50.248;19.032;2023-05-01T05:17:35;98546.06;;;8.20;50.90
40918;BME280;26644;50.248;19.032;2023-05-01T05:20:40;98543.84;;;8.17;50.92
40918;BME280;26644;50.248;19.032;2023-05-01T05:23:45;98550.38;;;8.16;51.64
40918;BME280;26644;50.248;19.032;2023-05-01T05:26:49;98543.06;;;8.22;50.60
40918;BME280;26644;50.248;19.032;2023-05-01T05:29:58;98548.66;;;8.37;50.53
40918;BME280;26644;50.248;19.032;2023-05-01T05:33:03;98536.19;;;8.57;49.18
40918;BME280;26644;50.248;19.032;2023-05-01T05:36:12;98538.06;;;8.94;48.84
40918;BME280;26644;50.248;19.032;2023-05-01T05:39:20;98542.13;;;9.50;47.98
40918;BME280;26644;50.248;19.032;2023-05-01T05:42:26;98534.56;;;10.24;46.92
40918;BME280;26644;50.248;19.032;2023-05-01T05:45:37;98537.88;;;11.38;44.79
40918;BME280;26644;50.248;19.032;2023-05-01T05:48:43;98544.28;;;12.52;41.89
40918;BME280;26644;50.248;19.032;2023-05-01T05:51:48;98548.38;;;13.57;39.90
40918;BME280;26644;50.248;19.032;2023-05-01T05:54:53;98541.16;;;14.51;38.12
40918;BME280;26644;50.248;19.032;2023-05-01T05:57:57;98552.81;;;15.51;35.75
40918;BME280;26644;50.248;19.032;2023-05-01T06:01:06;98546.13;;;16.16;34.30
40918;BME280;26644;50.248;19.032;2023-05-01T06:04:13;98560.78;;;16.62;33.13
40918;BME280;26644;50.248;19.032;2023-05-01T06:07:20;98564.56;;;17.38;33.29
40918;BME280;26644;50.248;19.032;2023-05-01T06:10:26;98548.69;;;17.79;31.56
40918;BME280;26644;50.248;19.032;2023-05-01T06:13:31;98561.78;;;18.39;30.80
40918;BME280;26644;50.248;19.032;2023-05-01T06:16:38;98563.38;;;18.75;30.12
40918;BME280;26644;50.248;19.032;2023-05-01T06:19:43;98560.25;;;18.95;30.01
40918;BME280;26644;50.248;19.032;2023-05-01T06:22:49;98550.16;;;19.58;28.89
40918;BME280;26644;50.248;19.032;2023-05-01T06:26:03;98566.03;;;19.88;28.12
40918;BME280;26644;50.248;19.032;2023-05-01T06:29:08;98563.28;;;20.30;27.97
40918;BME280;26644;50.248;19.032;2023-05-01T06:32:16;98578.31;;;20.84;26.08
40918;BME280;26644;50.248;19.032;2023-05-01T06:35:21;98575.97;;;20.40;25.62
40918;BME280;26644;50.248;19.032;2023-05-01T06:38:27;98565.88;;;20.81;26.30
40918;BME280;26644;50.248;19.032;2023-05-01T06:41:33;98564.56;;;20.33;26.09
40918;BME280;26644;50.248;19.032;2023-05-01T06:44:39;98559.84;;;19.82;26.13
40918;BME280;26644;50.248;19.032;2023-05-01T06:47:47;98575.88;;;20.15;25.91
40918;BME280;26644;50.248;19.032;2023-05-01T06:50:52;98569.97;;;19.87;25.94
40918;BME280;26644;50.248;19.032;2023-05-01T06:53:56;98552.56;;;19.90;26.33
40918;BME280;26644;50.248;19.032;2023-05-01T06:57:02;98554.13;;;19.79;26.34
40918;BME280;26644;50.248;19.032;2023-05-01T07:00:07;98556.66;;;20.14;25.94
40918;BME280;26644;50.248;19.032;2023-05-01T07:03:17;98550.50;;;18.71;26.66
40918;BME280;26644;50.248;19.032;2023-05-01T07:06:21;98553.44;;;18.66;27.13
40918;BME280;26644;50.248;19.032;2023-05-01T07:09:26;98554.13;;;18.10;27.14
40918;BME280;26644;50.248;19.032;2023-05-01T07:12:31;98553.94;;;18.33;27.34
40918;BME280;26644;50.248;19.032;2023-05-01T07:15:36;98552.00;;;18.42;26.95
40918;BME280;26644;50.248;19.032;2023-05-01T07:18:43;98547.50;;;18.85;26.49
40918;BME280;26644;50.248;19.032;2023-05-01T07:21:49;98542.00;;;19.15;25.62
40918;BME280;26644;50.248;19.032;2023-05-01T07:24:54;98550.00;;;19.55;25.68
40918;BME280;26644;50.248;19.032;2023-05-01T07:27:59;98556.72;;;19.54;26.13
40918;BME280;26644;50.248;19.032;2023-05-01T07:31:04;98550.63;;;19.60;25.58
40918;BME280;26644;50.248;19.032;2023-05-01T07:34:12;98550.16;;;19.58;26.22
40918;BME280;26644;50.248;19.032;2023-05-01T07:37:18;98548.59;;;20.54;25.48
40918;BME280;26644;50.248;19.032;2023-05-01T07:40:23;98552.63;;;21.36;24.67
40918;BME280;26644;50.248;19.032;2023-05-01T07:43:28;98553.13;;;20.92;24.03
40918;BME280;26644;50.248;19.032;2023-05-01T07:46:33;98543.47;;;20.78;24.70
40918;BME280;26644;50.248;19.032;2023-05-01T07:49:40;98546.34;;;21.15;24.67
40918;BME280;26644;50.248;19.032;2023-05-01T07:52:45;98558.72;;;20.92;24.42
40918;BME280;26644;50.248;19.032;2023-05-01T07:55:49;98557.13;;;21.04;24.17
40918;BME280;26644;50.248;19.032;2023-05-01T07:58:55;98543.41;;;21.11;23.72
40918;BME280;26644;50.248;19.032;2023-05-01T08:01:59;98545.88;;;20.46;24.37
40918;BME280;26644;50.248;19.032;2023-05-01T08:05:08;98550.88;;;21.07;24.24
40918;BME280;26644;50.248;19.032;2023-05-01T08:08:13;98544.97;;;21.33;23.66
40918;BME280;26644;50.248;19.032;2023-05-01T08:11:21;98545.88;;;21.50;23.57
40918;BME280;26644;50.248;19.032;2023-05-01T08:14:26;98534.34;;;21.39;23.72
40918;BME280;26644;50.248;19.032;2023-05-01T08:17:31;98540.38;;;21.78;24.24
40918;BME280;26644;50.248;19.032;2023-05-01T08:20:40;98539.59;;;22.47;23.16
40918;BME280;26644;50.248;19.032;2023-05-01T08:23:45;98542.56;;;21.97;23.34
40918;BME280;26644;50.248;19.032;2023-05-01T08:26:51;98546.31;;;22.86;23.40
40918;BME280;26644;50.248;19.032;2023-05-01T08:29:56;98539.59;;;22.91;22.22
40918;BME280;26644;50.248;19.032;2023-05-01T08:33:00;98545.28;;;22.79;22.46
40918;BME280;26644;50.248;19.032;2023-05-01T08:36:09;98530.63;;;22.98;22.78
40918;BME280;26644;50.248;19.032;2023-05-01T08:39:14;98529.16;;;22.31;22.33
40918;BME280;26644;50.248;19.032;2023-05-01T08:42:19;98523.34;;;22.65;21.50
40918;BME280;26644;50.248;19.032;2023-05-01T08:45:26;98525.50;;;22.55;21.94
40918;BME280;26644;50.248;19.032;2023-05-01T08:48:35;98532.22;;;22.99;21.94
40918;BME280;26644;50.248;19.032;2023-05-01T08:51:45;98523.38;;;22.97;21.21
40918;BME280;26644;50.248;19.032;2023-05-01T08:54:53;98505.09;;;22.55;21.99
40918;BME280;26644;50.248;19.032;2023-05-01T08:58:01;98518.38;;;22.58;21.86
40918;BME280;26644;50.248;19.032;2023-05-01T09:01:14;98525.91;;;23.18;21.17
40918;BME280;26644;50.248;19.032;2023-05-01T09:04:20;98523.75;;;23.43;20.88
40918;BME280;26644;50.248;19.032;2023-05-01T09:07:28;98514.34;;;23.35;19.79
40918;BME280;26644;50.248;19.032;2023-05-01T09:10:40;98518.47;;;23.09;20.67
40918;BME280;26644;50.248;19.032;2023-05-01T09:13:51;98507.84;;;23.15;20.54
40918;BME280;26644;50.248;19.032;2023-05-01T09:16:57;98515.59;;;21.89;21.33
40918;BME280;26644;50.248;19.032;2023-05-01T09:20:04;98506.66;;;22.12;21.53
40918;BME280;26644;50.248;19.032;2023-05-01T09:23:13;98500.56;;;22.50;20.36
40918;BME280;26644;50.248;19.032;2023-05-01T09:26:19;98510.69;;;22.55;20.55
40918;BME280;26644;50.248;19.032;2023-05-01T09:29:39;98493.47;;;23.17;20.19
40918;BME280;26644;50.248;19.032;2023-05-01T09:32:45;98496.81;;;23.38;19.70
40918;BME280;26644;50.248;19.032;2023-05-01T09:36:06;98472.59;;;23.46;19.86
40918;BME280;26644;50.248;19.032;2023-05-01T09:39:21;98488.63;;;23.65;20.05
40918;BME280;26644;50.248;19.032;2023-05-01T09:42:26;98476.50;;;23.97;19.72
40918;BME280;26644;50.248;19.032;2023-05-01T09:45:32;98481.69;;;24.14;19.66
40918;BME280;26644;50.248;19.032;2023-05-01T09:48:37;98479.94;;;24.49;18.61
40918;BME280;26644;50.248;19.032;2023-05-01T09:51:42;98479.50;;;24.47;18.88
40918;BME280;26644;50.248;19.032;2023-05-01T09:54:49;98463.50;;;23.88;19.33
40918;BME280;26644;50.248;19.032;2023-05-01T09:58:01;98474.31;;;23.51;19.38
40918;BME280;26644;50.248;19.032;2023-05-01T10:01:05;98471.88;;;22.69;18.43
40918;BME280;26644;50.248;19.032;2023-05-01T10:04:11;98471.25;;;22.92;18.86
40918;BME280;26644;50.248;19.032;2023-05-01T10:07:16;98467.28;;;23.25;19.56
40918;BME280;26644;50.248;19.032;2023-05-01T10:10:24;98468.84;;;23.58;20.05
40918;BME280;26644;50.248;19.032;2023-05-01T10:13:29;98456.38;;;23.55;19.42
40918;BME280;26644;50.248;19.032;2023-05-01T10:16:36;98464.03;;;23.58;19.60
40918;BME280;26644;50.248;19.032;2023-05-01T10:19:41;98449.53;;;23.53;20.12
40918;BME280;26644;50.248;19.032;2023-05-01T10:22:46;98448.34;;;23.54;19.66
40918;BME280;26644;50.248;19.032;2023-05-01T10:25:55;98454.19;;;23.65;18.23
40918;BME280;26644;50.248;19.032;2023-05-01T10:29:00;98451.41;;;22.81;18.24
40918;BME280;26644;50.248;19.032;2023-05-01T10:32:07;98435.47;;;23.17;18.65
40918;BME280;26644;50.248;19.032;2023-05-01T10:35:20;98439.84;;;22.99;19.61
40918;BME280;26644;50.248;19.032;2023-05-01T10:38:32;98385.22;;;21.68;19.96
40918;BME280;26644;50.248;19.032;2023-05-01T10:42:02;98425.13;;;22.09;19.43
40918;BME280;26644;50.248;19.032;2023-05-01T10:45:28;98432.59;;;21.65;20.93
40918;BME280;26644;50.248;19.032;2023-05-01T10:48:52;98423.00;;;21.90;20.04
40918;BME280;26644;50.248;19.032;2023-05-01T10:51:59;98420.34;;;21.82;19.24
40918;BME280;26644;50.248;19.032;2023-05-01T10:55:32;98406.97;;;21.75;19.17
40918;BME280;26644;50.248;19.032;2023-05-01T10:58:59;98408.28;;;21.65;19.17
40918;BME280;26644;50.248;19.032;2023-05-01T11:02:20;98405.13;;;21.01;20.14
40918;BME280;26644;50.248;19.032;2023-05-01T11:09:35;98408.75;;;19.98;19.98
40918;BME280;26644;50.248;19.032;2023-05-01T11:12:49;98384.78;;;19.51;20.71
40918;BME280;26644;50.248;19.032;2023-05-01T11:15:57;98394.78;;;19.22;21.37
40918;BME280;26644;50.248;19.032;2023-05-01T11:19:02;98384.66;;;18.96;21.75
40918;BME280;26644;50.248;19.032;2023-05-01T11:22:11;98376.03;;;18.50;22.02
40918;BME280;26644;50.248;19.032;2023-05-01T11:25:21;98370.81;;;18.49;22.10
40918;BME280;26644;50.248;19.032;2023-05-01T11:28:29;98356.28;;;18.34;22.69
40918;BME280;26644;50.248;19.032;2023-05-01T11:31:37;98360.91;;;18.21;23.16
40918;BME280;26644;50.248;19.032;2023-05-01T11:34:43;98355.06;;;18.05;23.14
40918;BME280;26644;50.248;19.032;2023-05-01T11:37:50;98351.84;;;18.03;23.24
40918;BME280;26644;50.248;19.032;2023-05-01T11:40:59;98345.75;;;18.10;23.84
40918;BME280;26644;50.248;19.032;2023-05-01T11:44:05;98350.81;;;18.08;23.83
40918;BME280;26644;50.248;19.032;2023-05-01T11:47:13;98349.50;;;18.14;24.16
40918;BME280;26644;50.248;19.032;2023-05-01T11:50:17;98338.56;;;18.09;24.31
40918;BME280;26644;50.248;19.032;2023-05-01T11:53:24;98334.19;;;17.99;24.34
40918;BME280;26644;50.248;19.032;2023-05-01T11:56:29;98308.31;;;17.69;24.31
40918;BME280;26644;50.248;19.032;2023-05-01T11:59:35;98322.94;;;17.87;24.05
40918;BME280;26644;50.248;19.032;2023-05-01T12:02:54;98323.91;;;17.91;24.58
40918;BME280;26644;50.248;19.032;2023-05-01T12:06:01;98308.75;;;17.88;24.98
40918;BME280;26644;50.248;19.032;2023-05-01T12:09:07;98307.41;;;17.94;25.24
40918;BME280;26644;50.248;19.032;2023-05-01T12:12:13;98313.59;;;18.00;25.13
40918;BME280;26644;50.248;19.032;2023-05-01T12:15:18;98296.78;;;17.97;25.98
40918;BME280;26644;50.248;19.032;2023-05-01T12:18:26;98299.22;;;17.98;25.98
40918;BME280;26644;50.248;19.032;2023-05-01T12:21:31;98307.44;;;17.86;25.90
40918;BME280;26644;50.248;19.032;2023-05-01T12:24:37;98291.38;;;18.00;26.47
40918;BME280;26644;50.248;19.032;2023-05-01T12:27:51;98288.81;;;18.25;26.13
40918;BME280;26644;50.248;19.032;2023-05-01T12:31:01;98289.94;;;18.41;25.89
40918;BME280;26644;50.248;19.032;2023-05-01T12:34:08;98284.78;;;18.52;25.56
40918;BME280;26644;50.248;19.032;2023-05-01T12:37:14;98276.56;;;18.56;25.20
40918;BME280;26644;50.248;19.032;2023-05-01T12:40:18;98271.47;;;18.67;25.24
40918;BME280;26644;50.248;19.032;2023-05-01T12:43:30;98267.44;;;18.55;26.59
40918;BME280;26644;50.248;19.032;2023-05-01T12:46:36;98274.06;;;18.42;26.71
40918;BME280;26644;50.248;19.032;2023-05-01T12:49:44;98269.94;;;18.48;26.76
40918;BME280;26644;50.248;19.032;2023-05-01T12:52:49;98264.03;;;18.50;26.64
40918;BME280;26644;50.248;19.032;2023-05-01T12:55:57;98256.31;;;18.25;27.07
40918;BME280;26644;50.248;19.032;2023-05-01T12:59:03;98242.25;;;18.22;27.32
40918;BME280;26644;50.248;19.032;2023-05-01T13:02:10;98241.53;;;18.34;27.26
40918;BME280;26644;50.248;19.032;2023-05-01T13:05:18;98233.81;;;18.39;27.13
40918;BME280;26644;50.248;19.032;2023-05-01T13:08:29;98242.63;;;18.50;27.15
40918;BME280;26644;50.248;19.032;2023-05-01T13:11:34;98235.75;;;18.48;26.89
40918;BME280;26644;50.248;19.032;2023-05-01T13:14:41;98229.19;;;18.52;27.31
40918;BME280;26644;50.248;19.032;2023-05-01T13:17:46;98229.47;;;18.59;27.32
40918;BME280;26644;50.248;19.032;2023-05-01T13:20:54;98227.84;;;18.58;27.51
40918;BME280;26644;50.248;19.032;2023-05-01T13:24:00;98220.53;;;18.54;27.69
40918;BME280;26644;50.248;19.032;2023-05-01T13:27:07;98216.41;;;18.60;27.42
40918;BME280;26644;50.248;19.032;2023-05-01T13:30:12;98212.97;;;18.54;27.79
40918;BME280;26644;50.248;19.032;2023-05-01T13:33:18;98205.75;;;18.62;28.12
40918;BME280;26644;50.248;19.032;2023-05-01T13:36:29;98207.03;;;18.65;28.48
40918;BME280;26644;50.248;19.032;2023-05-01T13:39:40;98211.34;;;18.74;28.42
40918;BME280;26644;50.248;19.032;2023-05-01T13:42:45;98202.34;;;18.77;28.02
40918;BME280;26644;50.248;19.032;2023-05-01T13:45:56;98207.22;;;18.81;27.90
40918;BME280;26644;50.248;19.032;2023-05-01T13:49:05;98202.25;;;18.86;27.71
40918;BME280;26644;50.248;19.032;2023-05-01T13:52:15;98201.72;;;18.93;27.82
40918;BME280;26644;50.248;19.032;2023-05-01T13:55:22;98192.00;;;18.99;27.43
40918;BME280;26644;50.248;19.032;2023-05-01T13:58:28;98200.16;;;19.04;27.31
40918;BME280;26644;50.248;19.032;2023-05-01T14:01:38;98184.88;;;19.10;27.47
40918;BME280;26644;50.248;19.032;2023-05-01T14:04:48;98192.16;;;19.03;27.97
40918;BME280;26644;50.248;19.032;2023-05-01T14:07:57;98174.63;;;19.02;27.98
40918;BME280;26644;50.248;19.032;2023-05-01T14:11:04;98178.91;;;19.00;28.25
40918;BME280;26644;50.248;19.032;2023-05-01T14:14:14;98173.28;;;19.08;27.83
40918;BME280;26644;50.248;19.032;2023-05-01T14:17:24;98164.38;;;19.15;27.11
40918;BME280;26644;50.248;19.032;2023-05-01T14:20:32;98173.28;;;19.08;27.35
40918;BME280;26644;50.248;19.032;2023-05-01T14:23:40;98160.84;;;19.06;27.47
40918;BME280;26644;50.248;19.032;2023-05-01T14:26:46;98167.84;;;19.12;27.57
40918;BME280;26644;50.248;19.032;2023-05-01T14:29:53;98169.56;;;19.04;26.87
40918;BME280;26644;50.248;19.032;2023-05-01T14:33:00;98160.66;;;19.11;27.53
40918;BME280;26644;50.248;19.032;2023-05-01T14:36:05;98163.44;;;19.23;27.25
40918;BME280;26644;50.248;19.032;2023-05-01T14:39:14;98156.16;;;19.19;27.46
40918;BME280;26644;50.248;19.032;2023-05-01T14:42:19;98140.38;;;19.23;27.58
40918;BME280;26644;50.248;19.032;2023-05-01T14:45:23;98153.06;;;19.33;27.61
40918;BME280;26644;50.248;19.032;2023-05-01T14:48:34;98142.78;;;19.33;27.21
40918;BME280;26644;50.248;19.032;2023-05-01T14:51:40;98135.09;;;19.30;27.47
40918;BME280;26644;50.248;19.032;2023-05-01T14:54:47;98129.53;;;19.30;26.74
40918;BME280;26644;50.248;19.032;2023-05-01T14:57:53;98135.41;;;19.29;27.12
40918;BME280;26644;50.248;19.032;2023-05-01T15:00:59;98129.31;;;19.35;26.89
40918;BME280;26644;50.248;19.032;2023-05-01T15:04:04;98128.50;;;19.35;26.60
40918;BME280;26644;50.248;19.032;2023-05-01T15:07:11;98136.28;;;19.29;27.02
40918;BME280;26644;50.248;19.032;2023-05-01T15:10:19;98138.69;;;19.31;26.89
40918;BME280;26644;50.248;19.032;2023-05-01T15:13:24;98129.84;;;19.29;27.00
40918;BME280;26644;50.248;19.032;2023-05-01T15:16:29;98131.50;;;19.30;27.26
40918;BME280;26644;50.248;19.032;2023-05-01T15:19:34;98105.81;;;19.12;26.97
40918;BME280;26644;50.248;19.032;2023-05-01T15:22:39;98119.97;;;19.19;27.01
40918;BME280;26644;50.248;19.032;2023-05-01T15:25:47;98112.44;;;19.19;27.16
40918;BME280;26644;50.248;19.032;2023-05-01T15:28:52;98114.41;;;19.19;27.02
40918;BME280;26644;50.248;19.032;2023-05-01T15:31:57;98114.66;;;19.26;27.19
40918;BME280;26644;50.248;19.032;2023-05-01T15:35:03;98113.16;;;19.29;26.97
40918;BME280;26644;50.248;19.032;2023-05-01T15:38:09;98105.16;;;19.27;26.88
40918;BME280;26644;50.248;19.032;2023-05-01T15:41:16;98100.09;;;19.29;26.80
40918;BME280;26644;50.248;19.032;2023-05-01T15:44:22;98086.47;;;19.15;26.87
40918;BME280;26644;50.248;19.032;2023-05-01T15:47:27;98098.88;;;19.18;26.63
40918;BME280;26644;50.248;19.032;2023-05-01T15:50:32;98101.78;;;19.21;26.62
40918;BME280;26644;50.248;19.032;2023-05-01T15:53:37;98102.34;;;19.15;26.97
40918;BME280;26644;50.248;19.032;2023-05-01T15:56:45;98102.13;;;19.20;27.46
40918;BME280;26644;50.248;19.032;2023-05-01T15:59:49;98096.66;;;19.23;27.07
40918;BME280;26644;50.248;19.032;2023-05-01T16:02:56;98087.97;;;19.13;26.87
40918;BME280;26644;50.248;19.032;2023-05-01T16:06:02;98099.34;;;19.20;26.70
40918;BME280;26644;50.248;19.032;2023-05-01T16:09:08;98098.28;;;19.24;26.62
40918;BME280;26644;50.248;19.032;2023-05-01T16:12:15;98100.28;;;19.24;26.37
40918;BME280;26644;50.248;19.032;2023-05-01T16:15:21;98097.72;;;19.19;26.47
40918;BME280;26644;50.248;19.032;2023-05-01T16:18:25;98103.63;;;19.17;26.38
40918;BME280;26644;50.248;19.032;2023-05-01T16:21:30;98096.78;;;19.15;26.41
40918;BME280;26644;50.248;19.032;2023-05-01T16:24:35;98097.84;;;19.22;26.43
40918;BME280;26644;50.248;19.032;2023-05-01T16:27:44;98092.28;;;19.22;26.47
40918;BME280;26644;50.248;19.032;2023-05-01T16:30:49;98097.59;;;19.27;26.53
40918;BME280;26644;50.248;19.032;2023-05-01T16:33:54;98089.94;;;19.24;26.52